Time;durP1;ratioP1;P1;durP2;ratioP2;P2;SDS_P1;SDS_P2;PMS_P1;PMS_P2;Temp;Humidity;BMP_temperature;BMP_pressure;BME280_temperature;BME280_humidity;BME280_pressure;Samples;Min_cycle;Max_cycle;Signal;HPM_P1;HPM_P2
2023/03/15 00:01:17;;;;;;;3.90;1.30;;;1.40;92.00;;;;;;5051766;28;20108;-56
2023/03/15 00:03:44;;;;;;;4.40;1.15;;;1.40;92.00;;;;;;5035452;28;20026;-58
2023/03/15 00:06:21;;;;;;;4.47;1.35;;;1.40;92.10;;;;;;5035992;28;20030;-58
2023/03/15 00:08:46;;;;;;;3.80;1.70;;;1.40;92.00;;;;;;5035340;28;20790;-59
2023/03/15 00:11:17;;;;;;;3.88;1.60;;;1.40;92.00;;;;;;5035316;28;20083;-59
2023/03/15 00:13:45;;;;;;;6.25;1.58;;;1.50;92.00;;;;;;5044746;28;20044;-60
2023/03/15 00:16:16;;;;;;;3.95;1.60;;;1.40;91.90;;;;;;5055549;28;20099;-59
2023/03/15 00:18:53;;;;;;;6.57;1.63;;;1.40;91.90;;;;;;5055723;28;20020;-59
2023/03/15 00:21:20;;;;;;;5.25;1.90;;;1.40;91.90;;;;;;5053109;28;20025;-59
2023/03/15 00:23:49;;;;;;;5.82;1.90;;;1.40;91.90;;;;;;5035967;28;21096;-57
2023/03/15 00:26:18;;;;;;;8.35;2.60;;;1.30;91.80;;;;;;5035996;28;20025;-53
2023/03/15 00:28:46;;;;;;;4.45;1.77;;;1.30;92.00;;;;;;5034532;28;20022;-52
2023/03/15 00:31:22;;;;;;;6.90;1.70;;;1.30;91.90;;;;;;5034452;28;20400;-49
2023/03/15 00:33:53;;;;;;;4.15;1.70;;;1.30;91.90;;;;;;5035015;28;20048;-53
2023/03/15 00:36:33;;;;;;;4.53;1.33;;;1.30;91.90;;;;;;5035721;28;20029;-50
2023/03/15 00:39:00;;;;;;;5.50;1.60;;;1.30;91.90;;;;;;5018577;28;20039;-51
2023/03/15 00:41:26;;;;;;;7.65;2.08;;;1.20;91.90;;;;;;5035273;28;20084;-48
2023/03/15 00:43:52;;;;;;;4.00;2.20;;;1.20;91.90;;;;;;5052990;28;20032;-46
2023/03/15 00:46:18;;;;;;;6.32;2.28;;;1.30;92.00;;;;;;5055279;28;20102;-47
2023/03/15 00:48:50;;;;;;;9.65;2.40;;;1.20;91.80;;;;;;5043682;28;20058;-45
2023/03/15 00:51:22;;;;;;;8.02;2.40;;;1.10;91.90;;;;;;5050738;28;20034;-46
2023/03/15 00:53:51;;;;;;;8.90;2.85;;;1.20;92.00;;;;;;5035611;28;20040;-45
2023/03/15 00:56:22;;;;;;;6.32;2.20;;;1.20;91.90;;;;;;5034221;28;20033;-45
2023/03/15 00:58:48;;;;;;;7.97;2.75;;;1.10;91.90;;;;;;5035268;28;20079;-45
2023/03/15 01:01:33;;;;;;;8.30;1.85;;;1.10;92.00;;;;;;5034412;28;20108;-44
2023/03/15 01:04:03;;;;;;;5.70;2.53;;;1.20;92.10;;;;;;5034728;28;20041;-44
2023/03/15 01:06:31;;;;;;;6.32;2.25;;;1.20;92.10;;;;;;5035264;28;20036;-43
2023/03/15 01:09:00;;;;;;;9.13;2.40;;;1.30;92.00;;;;;;5035113;28;20040;-43
2023/03/15 01:11:27;;;;;;;7.20;2.63;;;1.30;92.00;;;;;;5035572;28;20048;-43
2023/03/15 01:13:57;;;;;;;6.72;2.08;;;1.20;91.80;;;;;;5033596;28;20092;-42
2023/03/15 01:16:26;;;;;;;7.68;2.60;;;1.20;91.70;;;;;;5033990;28;20094;-43
2023/03/15 01:18:53;;;;;;;8.07;2.65;;;1.20;91.80;;;;;;5033978;28;20033;-41
2023/03/15 01:21:23;;;;;;;4.47;2.05;;;1.20;91.70;;;;;;5034189;28;20025;-43
2023/03/15 01:23:50;;;;;;;10.02;2.80;;;1.10;91.60;;;;;;5034727;28;20021;-45
2023/03/15 01:26:18;;;;;;;5.55;2.35;;;1.10;91.50;;;;;;5034688;28;20053;-42
2023/03/15 01:28:50;;;;;;;8.50;2.55;;;1.00;91.50;;;;;;5034338;28;20059;-41
2023/03/15 01:31:29;;;;;;;12.38;3.22;;;0.90;91.40;;;;;;5033803;28;20037;-40
2023/03/15 01:33:57;;;;;;;10.02;2.78;;;0.90;91.50;;;;;;5034754;28;20069;-42
2023/03/15 01:36:23;;;;;;;9.90;3.38;;;0.90;91.60;;;;;;5033527;28;20419;-40
2023/03/15 01:38:52;;;;;;;8.43;2.15;;;0.90;91.50;;;;;;5034311;28;20473;-43
2023/03/15 01:41:20;;;;;;;9.23;2.92;;;0.90;91.50;;;;;;5033554;28;20068;-42
2023/03/15 01:43:48;;;;;;;8.50;3.08;;;0.90;91.60;;;;;;5034340;28;20359;-40
2023/03/15 01:46:40;;;;;;;10.85;4.03;;;0.90;91.80;;;;;;5033362;28;20163;-41
2023/03/15 01:49:30;;;;;;;12.93;4.43;;;0.90;91.60;;;;;;5032007;28;20048;-41
2023/03/15 01:52:32;;;;;;;12.52;3.50;;;0.90;91.70;;;;;;5034208;28;20041;-42
2023/03/15 01:55:09;;;;;;;11.32;3.40;;;0.90;91.80;;;;;;5033542;28;20455;-40
2023/03/15 01:57:50;;;;;;;13.40;3.75;;;0.90;91.70;;;;;;5033294;28;20026;-43
2023/03/15 02:00:19;;;;;;;10.90;5.78;;;0.90;91.90;;;;;;5033775;28;20071;-44
2023/03/15 02:03:13;;;;;;;11.07;4.33;;;0.90;91.90;;;;;;5032883;28;20038;-42
2023/03/15 02:06:02;;;;;;;9.50;3.53;;;1.00;91.90;;;;;;5032978;28;20137;-41
2023/03/15 02:08:35;;;;;;;11.30;3.22;;;1.00;91.90;;;;;;5033792;28;20053;-46
2023/03/15 02:11:06;;;;;;;8.38;2.97;;;1.00;92.00;;;;;;5034040;28;20022;-46
2023/03/15 02:13:35;;;;;;;11.20;2.90;;;1.00;92.00;;;;;;5033495;28;20104;-40
2023/03/15 02:16:05;;;;;;;8.95;3.28;;;1.00;92.00;;;;;;5032973;28;20025;-41
2023/03/15 02:18:35;;;;;;;8.13;3.25;;;1.10;92.20;;;;;;5033819;28;20033;-40
2023/03/15 02:21:18;;;;;;;6.20;2.70;;;1.10;92.10;;;;;;5032434;28;20038;-40
2023/03/15 02:23:47;;;;;;;9.48;2.45;;;1.10;92.10;;;;;;5033859;28;20447;-40
2023/03/15 02:26:33;;;;;;;7.93;4.17;;;1.10;92.20;;;;;;5033747;28;20029;-40
2023/03/15 02:29:03;;;;;;;10.27;2.55;;;1.10;92.10;;;;;;5032307;28;20041;-40
2023/03/15 02:31:36;;;;;;;10.50;2.97;;;1.10;92.20;;;;;;5033638;28;20428;-40
2023/03/15 02:34:05;;;;;;;7.47;2.20;;;1.20;92.20;;;;;;5033297;28;20052;-40
2023/03/15 02:36:35;;;;;;;6.63;2.35;;;1.20;92.30;;;;;;5032625;28;20025;-41
2023/03/15 02:39:18;;;;;;;9.07;2.78;;;1.20;92.30;;;;;;5032138;28;20418;-40
2023/03/15 02:41:58;;;;;;;4.90;1.98;;;1.30;92.40;;;;;;5015644;28;20040;-41
2023/03/15 02:44:32;;;;;;;;;;;1.30;92.40;;;;;;5032304;28;20025;-43
2023/03/15 02:47:04;;;;;;;6.43;1.92;;;1.30;92.30;;;;;;5032037;28;19913;-44
2023/03/15 02:49:37;;;;;;;6.45;2.15;;;1.30;92.30;;;;;;5032067;28;20044;-45
2023/03/15 02:52:04;;;;;;;7.18;2.65;;;1.30;92.30;;;;;;5015943;28;20136;-45
2023/03/15 02:54:35;;;;;;;3.65;1.83;;;1.30;92.30;;;;;;5033130;28;20025;-42
2023/03/15 02:57:01;;;;;;;5.70;3.55;;;1.30;92.30;;;;;;5033057;28;20029;-40
2023/03/15 02:59:27;;;;;;;5.50;2.20;;;1.20;92.10;;;;;;5048645;28;20037;-41
2023/03/15 03:01:55;;;;;;;6.25;3.50;;;1.20;92.10;;;;;;5015929;28;20025;-40
2023/03/15 03:04:25;;;;;;;8.88;3.17;;;1.20;92.10;;;;;;5032117;28;20033;-41
2023/03/15 03:06:55;;;;;;;9.23;2.60;;;1.10;92.00;;;;;;5049424;28;20036;-40
2023/03/15 03:09:21;;;;;;;6.80;2.17;;;1.00;91.90;;;;;;5046522;28;20112;-42
2023/03/15 03:11:51;;;;;;;8.70;2.97;;;1.00;91.90;;;;;;5048826;28;20061;-41
2023/03/15 03:14:16;;;;;;;11.43;4.75;;;1.00;91.90;;;;;;5044937;28;20060;-41
2023/03/15 03:16:42;;;;;;;8.27;4.10;;;1.00;92.00;;;;;;5052656;28;20021;-40
2023/03/15 03:19:13;;;;;;;17.15;4.85;;;0.90;91.80;;;;;;5042426;28;20025;-40
2023/03/15 03:21:45;;;;;;;13.90;4.07;;;0.90;91.70;;;;;;5015910;28;20068;-42
2023/03/15 03:24:14;;;;;;;11.23;3.50;;;0.90;91.80;;;;;;5032859;28;20064;-41
2023/03/15 03:26:48;;;;;;;8.90;2.75;;;0.80;91.80;;;;;;5032763;28;20116;-43
2023/03/15 03:29:16;;;;;;;8.40;2.22;;;0.70;91.70;;;;;;5032593;28;20053;-41
2023/03/15 03:31:44;;;;;;;4.97;2.22;;;0.80;91.90;;;;;;5015511;28;20659;-44
2023/03/15 03:34:14;;;;;;;3.55;1.60;;;0.70;91.80;;;;;;5031652;28;20145;-43
2023/03/15 03:36:44;;;;;;;6.15;1.92;;;0.80;91.80;;;;;;5032349;28;20026;-40
2023/03/15 03:39:10;;;;;;;10.05;2.03;;;0.80;91.80;;;;;;5031910;28;20044;-42
2023/03/15 03:41:38;;;;;;;6.80;2.35;;;0.70;91.80;;;;;;5032734;28;20021;-41
2023/03/15 03:44:05;;;;;;;9.00;2.95;;;0.70;91.80;;;;;;5051303;28;20033;-41
2023/03/15 03:46:32;;;;;;;9.77;2.80;;;0.70;91.90;;;;;;5052792;28;20035;-40
2023/03/15 03:48:58;;;;;;;6.47;1.70;;;0.70;92.00;;;;;;5052671;28;20104;-41
2023/03/15 03:51:23;;;;;;;4.35;1.52;;;0.70;91.90;;;;;;5051878;28;20760;-41
2023/03/15 03:53:50;;;;;;;7.18;2.78;;;0.70;91.90;;;;;;5049128;28;20370;-40
2023/03/15 03:56:16;;;;;;;6.28;2.65;;;0.70;91.80;;;;;;5048278;28;20053;-42
2023/03/15 03:58:44;;;;;;;8.23;2.30;;;0.70;91.70;;;;;;5031494;28;20057;-41
2023/03/15 04:01:12;;;;;;;8.13;1.83;;;0.70;91.80;;;;;;5032015;28;20104;-43
2023/03/15 04:03:42;;;;;;;7.20;1.85;;;0.60;91.60;;;;;;5032234;28;20025;-40
2023/03/15 04:06:10;;;;;;;5.10;1.70;;;0.60;91.50;;;;;;5052127;28;20442;-40
2023/03/15 04:08:37;;;;;;;6.45;2.05;;;0.50;91.40;;;;;;5052576;28;20056;-42
2023/03/15 04:11:07;;;;;;;5.05;1.40;;;0.50;91.50;;;;;;5051531;28;20064;-42
2023/03/15 04:13:34;;;;;;;8.10;1.67;;;0.50;91.50;;;;;;5035529;28;20050;-42
2023/03/15 04:16:05;;;;;;;8.57;1.73;;;0.50;91.60;;;;;;5035742;28;20095;-43
2023/03/15 04:18:32;;;;;;;8.27;2.17;;;0.50;91.70;;;;;;5036277;28;20201;-46
2023/03/15 04:21:01;;;;;;;2.13;1.13;;;0.50;91.70;;;;;;5036083;28;20057;-42
2023/03/15 04:23:28;;;;;;;7.03;1.70;;;0.50;91.70;;;;;;5035897;28;20049;-43
2023/03/15 04:25:56;;;;;;;9.57;3.33;;;0.40;91.60;;;;;;5035805;28;20031;-44
2023/03/15 04:28:22;;;;;;;8.63;1.80;;;0.40;91.50;;;;;;5035718;28;20052;-43
2023/03/15 04:30:49;;;;;;;5.30;1.63;;;0.40;91.70;;;;;;5035626;28;20432;-42
2023/03/15 04:33:16;;;;;;;3.53;1.52;;;0.40;91.60;;;;;;5034599;28;20069;-43
2023/03/15 04:35:47;;;;;;;6.47;2.38;;;0.50;91.70;;;;;;5034562;28;20037;-43
2023/03/15 04:38:14;;;;;;;15.65;2.33;;;0.40;91.70;;;;;;5034312;28;20021;-43
2023/03/15 04:40:41;;;;;;;7.93;2.17;;;0.40;91.60;;;;;;5050859;28;20029;-44
2023/03/15 04:43:08;;;;;;;6.60;2.85;;;0.50;91.70;;;;;;5035017;28;20047;-42
2023/03/15 04:45:35;;;;;;;5.78;2.05;;;0.40;91.70;;;;;;5034672;28;20037;-45
2023/03/15 04:48:02;;;;;;;6.80;3.08;;;0.40;91.70;;;;;;5034794;28;20057;-43
2023/03/15 04:50:31;;;;;;;5.05;2.45;;;0.50;91.70;;;;;;5035317;28;20339;-43
2023/03/15 04:53:01;;;;;;;6.30;2.23;;;0.50;91.70;;;;;;5035356;28;20021;-46
2023/03/15 04:55:28;;;;;;;8.85;3.78;;;0.40;91.60;;;;;;5035445;28;20040;-43
2023/03/15 04:57:57;;;;;;;10.48;3.40;;;0.40;91.60;;;;;;5048914;28;20029;-43
2023/03/15 05:00:24;;;;;;;5.35;2.13;;;0.40;91.60;;;;;;5055286;28;20362;-43
2023/03/15 05:02:53;;;;;;;10.10;2.40;;;0.40;91.50;;;;;;5055256;28;20017;-45
2023/03/15 05:05:22;;;;;;;5.88;1.75;;;0.50;91.70;;;;;;5055079;28;20029;-46
2023/03/15 05:07:59;;;;;;;7.25;3.83;;;0.50;91.50;;;;;;5037718;28;20038;-43
2023/03/15 05:10:32;;;;;;;5.85;2.13;;;0.50;91.50;;;;;;5035394;28;20033;-43
2023/03/15 05:13:05;;;;;;;7.30;2.42;;;0.50;91.60;;;;;;5034934;28;20079;-49
2023/03/15 05:15:32;;;;;;;6.82;2.05;;;0.50;91.60;;;;;;5034773;28;20064;-44
2023/03/15 05:17:59;;;;;;;7.25;1.90;;;0.50;91.50;;;;;;5035016;28;20025;-43
2023/03/15 05:20:25;;;;;;;8.52;2.20;;;0.60;91.50;;;;;;5033669;28;20034;-44
2023/03/15 05:22:53;;;;;;;8.75;2.58;;;0.60;91.30;;;;;;5033625;28;20025;-43
2023/03/15 05:25:23;;;;;;;12.25;2.35;;;0.50;91.20;;;;;;5034905;28;20030;-44
2023/03/15 05:27:49;;;;;;;8.45;1.70;;;0.60;91.20;;;;;;5034950;28;20030;-46
2023/03/15 05:30:16;;;;;;;5.93;1.70;;;0.50;90.90;;;;;;5045803;28;20029;-44
2023/03/15 05:32:43;;;;;;;6.10;1.65;;;0.50;90.80;;;;;;5054783;28;20025;-43
2023/03/15 05:35:11;;;;;;;9.70;1.60;;;0.50;90.70;;;;;;5053395;28;20036;-46
2023/03/15 05:37:42;;;;;;;5.72;1.35;;;0.50;90.60;;;;;;5042268;28;20033;-43
2023/03/15 05:40:10;;;;;;;8.65;1.80;;;0.50;90.50;;;;;;5034488;28;20030;-47
2023/03/15 05:42:36;;;;;;;9.43;2.38;;;0.50;90.40;;;;;;5034367;28;20037;-44
2023/03/15 05:45:05;;;;;;;4.68;1.52;;;0.50;90.40;;;;;;5050977;28;20048;-44
2023/03/15 05:47:34;;;;;;;7.25;1.95;;;0.50;90.20;;;;;;5054255;28;20087;-44
2023/03/15 05:50:03;;;;;;;7.72;2.65;;;0.50;90.20;;;;;;5053432;28;20406;-44
2023/03/15 05:52:31;;;;;;;7.93;2.03;;;0.50;90.20;;;;;;5041911;28;20103;-43
2023/03/15 05:55:01;;;;;;;9.57;1.67;;;0.50;90.20;;;;;;5033913;28;20098;-48
2023/03/15 05:57:27;;;;;;;10.75;1.70;;;0.50;90.20;;;;;;5033894;28;20034;-46
2023/03/15 05:59:53;;;;;;;8.93;1.90;;;0.60;90.00;;;;;;5034273;28;20044;-43
2023/03/15 06:02:20;;;;;;;9.25;1.30;;;0.60;89.80;;;;;;5033962;28;20101;-45
2023/03/15 06:04:48;;;;;;;6.10;1.88;;;0.50;89.60;;;;;;5032780;28;20056;-44
2023/03/15 06:07:13;;;;;;;6.53;1.45;;;0.60;89.50;;;;;;5053722;28;20029;-44
2023/03/15 06:09:41;;;;;;;5.95;1.60;;;0.50;89.40;;;;;;5053880;28;20040;-43
2023/03/15 06:12:08;;;;;;;8.52;1.35;;;0.50;89.00;;;;;;5051416;28;20033;-43
2023/03/15 06:14:34;;;;;;;3.50;2.03;;;0.50;88.60;;;;;;5033572;28;20067;-42
2023/03/15 06:17:02;;;;;;;9.25;1.58;;;0.50;88.60;;;;;;5045089;28;20434;-44
2023/03/15 06:19:29;;;;;;;6.07;1.20;;;0.50;88.60;;;;;;5053622;28;20105;-43
2023/03/15 06:21:54;;;;;;;4.05;1.40;;;0.40;88.20;;;;;;5053525;28;20040;-44
2023/03/15 06:24:23;;;;;;;5.50;1.35;;;0.50;88.50;;;;;;5037046;28;20387;-48
2023/03/15 06:26:53;;;;;;;7.80;1.45;;;0.50;88.40;;;;;;5033806;28;20112;-46
2023/03/15 06:29:20;;;;;;;10.40;1.67;;;0.50;88.50;;;;;;5033741;28;20052;-43
2023/03/15 06:31:49;;;;;;;5.85;1.20;;;0.60;88.60;;;;;;5047513;28;20037;-44
2023/03/15 06:34:16;;;;;;;6.18;1.63;;;0.60;88.70;;;;;;5052143;28;20109;-45
2023/03/15 06:36:43;;;;;;;6.90;1.55;;;0.70;88.80;;;;;;5034489;28;20021;-42
2023/03/15 06:39:11;;;;;;;9.15;1.17;;;0.80;89.10;;;;;;5032674;28;20443;-43
2023/03/15 06:41:41;;;;;;;6.72;1.55;;;0.80;89.10;;;;;;5033325;28;20029;-43
2023/03/15 06:44:08;;;;;;;14.13;4.10;;;0.90;89.10;;;;;;5032425;28;20501;-44
2023/03/15 06:46:37;;;;;;;8.07;3.97;;;0.90;88.90;;;;;;5032410;28;20042;-43
2023/03/15 06:49:02;;;;;;;8.55;2.90;;;0.90;88.80;;;;;;5033123;28;20036;-44
2023/03/15 06:51:31;;;;;;;11.75;2.00;;;1.00;88.70;;;;;;5033316;28;20021;-43
2023/03/15 06:53:58;;;;;;;7.72;1.73;;;1.00;88.60;;;;;;5032853;28;20347;-45
2023/03/15 06:56:25;;;;;;;6.15;1.83;;;1.00;88.70;;;;;;5031698;28;20037;-46
2023/03/15 06:58:53;;;;;;;11.90;4.45;;;1.00;88.70;;;;;;5031745;28;20040;-44
2023/03/15 07:01:20;;;;;;;8.98;3.25;;;1.10;88.60;;;;;;5032297;28;20021;-47
2023/03/15 07:03:47;;;;;;;13.55;3.10;;;1.10;88.80;;;;;;5032409;28;20025;-41
2023/03/15 07:06:14;;;;;;;10.05;4.03;;;1.20;88.90;;;;;;5032540;28;20033;-41
2023/03/15 07:08:40;;;;;;;6.90;1.92;;;1.30;88.90;;;;;;5032834;28;20036;-43
2023/03/15 07:11:08;;;;;;;8.93;1.60;;;1.30;88.80;;;;;;5032936;28;20108;-40
2023/03/15 07:13:37;;;;;;;6.30;1.58;;;1.50;88.90;;;;;;5035014;28;20383;-41
2023/03/15 07:16:04;;;;;;;3.72;1.23;;;1.50;88.40;;;;;;5053112;28;20032;-41
2023/03/15 07:18:36;;;;;;;5.90;1.15;;;1.60;88.30;;;;;;5052584;28;20017;-41
2023/03/15 07:21:12;;;;;;;6.07;1.17;;;1.70;88.20;;;;;;5046778;28;20105;-41
2023/03/15 07:23:41;;;;;;;7.43;1.80;;;1.80;88.30;;;;;;5032974;28;20352;-43
2023/03/15 07:26:08;;;;;;;5.90;1.20;;;1.90;88.10;;;;;;5031864;28;20029;-44
2023/03/15 07:28:37;;;;;;;7.38;1.92;;;2.10;88.30;;;;;;5032979;28;20490;-47
2023/03/15 07:31:06;;;;;;;5.70;1.48;;;2.10;87.80;;;;;;5032775;28;20439;-51
2023/03/15 07:33:35;;;;;;;4.25;1.15;;;2.20;87.70;;;;;;5033094;28;20343;-49
2023/03/15 07:36:06;;;;;;;4.40;1.95;;;2.20;87.40;;;;;;5032142;28;20380;-52
2023/03/15 07:38:34;;;;;;;10.63;1.85;;;2.20;87.30;;;;;;5032522;28;20025;-50
2023/03/15 07:41:05;;;;;;;6.30;1.80;;;2.00;87.40;;;;;;5031927;28;20095;-50
2023/03/15 07:43:32;;;;;;;5.90;1.73;;;2.00;87.70;;;;;;5050461;28;20104;-48
2023/03/15 07:46:00;;;;;;;6.55;1.85;;;1.80;87.90;;;;;;5035604;28;20447;-47
2023/03/15 07:48:28;;;;;;;11.48;2.70;;;1.80;88.00;;;;;;5036489;28;20390;-47
2023/03/15 07:50:56;;;;;;;5.90;1.30;;;1.80;88.30;;;;;;5035806;28;20355;-49
2023/03/15 07:53:22;;;;;;;5.45;1.50;;;1.80;88.50;;;;;;5036525;28;20044;-47
2023/03/15 07:55:48;;;;;;;8.45;1.92;;;1.90;88.50;;;;;;5054336;28;20346;-50
2023/03/15 07:58:15;;;;;;;12.18;2.67;;;2.10;88.50;;;;;;5045876;28;20025;-50
2023/03/15 08:00:42;;;;;;;10.35;3.17;;;2.40;88.60;;;;;;5035424;28;20507;-52
2023/03/15 08:03:13;;;;;;;4.85;1.50;;;2.70;87.80;;;;;;5036450;28;20044;-48
2023/03/15 08:05:38;;;;;;;6.65;1.75;;;3.00;86.90;;;;;;5036439;28;20485;-47
2023/03/15 08:08:05;;;;;;;4.25;1.40;;;3.30;86.30;;;;;;5047920;28;20037;-49
2023/03/15 08:10:38;;;;;;;7.13;2.00;;;3.50;85.40;;;;;;5056243;28;20104;-48
2023/03/15 08:13:05;;;;;;;7.70;2.00;;;3.40;85.10;;;;;;5056179;28;20060;-49
2023/03/15 08:15:32;;;;;;;8.40;1.60;;;3.20;85.40;;;;;;5056173;28;20079;-47
2023/03/15 08:17:58;;;;;;;12.73;3.20;;;3.00;86.00;;;;;;5053826;28;20029;-51
2023/03/15 08:20:26;;;;;;;9.23;1.40;;;2.80;87.50;;;;;;5054014;28;20047;-47
2023/03/15 08:22:53;;;;;;;8.18;2.15;;;2.90;88.30;;;;;;5051768;28;20022;-46
2023/03/15 08:25:23;;;;;;;7.45;1.63;;;2.90;88.60;;;;;;5036096;28;20071;-44
2023/03/15 08:27:53;;;;;;;6.00;1.40;;;2.90;88.40;;;;;;5051307;28;20126;-44
2023/03/15 08:30:20;;;;;;;;;;;2.90;88.60;;;;;;5034836;28;20443;-44
2023/03/15 08:32:48;;;;;;;8.35;1.73;;;2.90;88.70;;;;;;5034682;28;19941;-47
2023/03/15 08:35:16;;;;;;;5.53;1.45;;;2.90;89.00;;;;;;5037259;28;20036;-46
2023/03/15 08:37:48;;;;;;;2.78;0.95;;;2.50;89.10;;;;;;5037956;28;20442;-47
2023/03/15 08:40:26;;;;;;;3.70;0.82;;;2.20;89.90;;;;;;5038336;28;20454;-46
2023/03/15 08:42:54;;;;;;;5.90;1.20;;;2.00;90.60;;;;;;5055319;28;20033;-47
2023/03/15 08:45:31;;;;;;;2.53;0.90;;;1.90;91.00;;;;;;5043588;28;20489;-49
2023/03/15 08:47:59;;;;;;;2.03;0.95;;;1.90;91.50;;;;;;5035700;28;20060;-47
2023/03/15 08:50:26;;;;;;;5.45;1.23;;;1.80;91.80;;;;;;5034536;28;20079;-49
2023/03/15 08:52:52;;;;;;;4.68;2.63;;;1.70;91.90;;;;;;5035544;28;20511;-49
2023/03/15 08:55:19;;;;;;;4.45;1.00;;;1.60;92.00;;;;;;5033405;28;20179;-48
2023/03/15 08:57:47;;;;;;;3.80;0.90;;;1.50;92.20;;;;;;5035448;28;20025;-47
2023/03/15 09:00:19;;;;;;;6.43;1.10;;;1.50;92.30;;;;;;5035569;28;20331;-47
2023/03/15 09:03:00;;;;;;;4.60;1.55;;;1.50;92.50;;;;;;5018667;28;20029;-47
2023/03/15 09:05:27;;;;;;;3.63;0.80;;;1.50;92.60;;;;;;5034004;28;20029;-55
2023/03/15 09:07:54;;;;;;;3.70;1.15;;;1.60;92.70;;;;;;5035086;28;20025;-52
2023/03/15 09:10:23;;;;;;;6.53;0.95;;;1.60;92.70;;;;;;5035120;28;20040;-56
2023/03/15 09:12:51;;;;;;;5.03;1.10;;;1.70;92.60;;;;;;5034024;28;20103;-55
2023/03/15 09:15:19;;;;;;;1.90;0.80;;;1.70;92.40;;;;;;5034848;28;20036;-58
2023/03/15 09:17:45;;;;;;;4.95;1.15;;;1.60;91.90;;;;;;5034892;28;20037;-57
2023/03/15 09:20:26;;;;;;;6.60;1.42;;;1.50;92.10;;;;;;5035275;28;20045;-56
2023/03/15 09:22:56;;;;;;;7.93;1.33;;;1.50;92.10;;;;;;5035145;28;20025;-59
2023/03/15 09:25:35;;;;;;;8.73;2.30;;;1.70;92.20;;;;;;5034781;28;20763;-60
2023/03/15 09:28:05;;;;;;;3.92;1.20;;;1.80;92.20;;;;;;5034979;28;20500;-61
2023/03/15 09:30:33;;;;;;;3.58;1.08;;;2.00;92.40;;;;;;5033653;28;20049;-61
2023/03/15 09:33:06;;;;;;;4.40;1.15;;;2.20;92.00;;;;;;5034939;28;20044;-60
2023/03/15 09:35:33;;;;;;;4.88;0.80;;;2.30;91.80;;;;;;5034135;28;20028;-56
2023/03/15 09:38:02;;;;;;;3.60;0.80;;;2.50;91.50;;;;;;5034403;28;20434;-56
2023/03/15 09:40:41;;;;;;;2.58;0.90;;;2.60;91.20;;;;;;5033267;28;20028;-52
2023/03/15 09:43:12;;;;;;;2.08;0.60;;;2.70;91.00;;;;;;5033418;28;20248;-52
2023/03/15 09:46:16;;;;;;;4.28;1.30;;;2.70;90.40;;;;;;5033806;28;20580;-54
2023/03/15 09:49:11;;;;;;;7.55;1.42;;;2.70;90.00;;;;;;5032893;28;20067;-49
2023/03/15 09:52:01;;;;;;;2.78;0.90;;;2.80;89.90;;;;;;5033924;28;20057;-52
2023/03/15 09:54:52;;;;;;;3.75;1.05;;;2.90;89.50;;;;;;5033039;28;20378;-51
2023/03/15 09:57:40;;;;;;;3.60;0.90;;;2.90;89.10;;;;;;5033774;28;20038;-45
2023/03/15 10:00:11;;;;;;;4.90;0.90;;;3.10;89.00;;;;;;5034023;28;20451;-48
2023/03/15 10:02:48;;;;;;;6.78;1.05;;;3.40;89.10;;;;;;5033283;28;20067;-49
2023/03/15 10:05:21;;;;;;;5.75;1.52;;;3.50;88.60;;;;;;5032964;28;20099;-47
2023/03/15 10:07:49;;;;;;;2.60;0.95;;;3.10;87.30;;;;;;5032718;28;20037;-51
2023/03/15 10:10:27;;;;;;;10.18;1.33;;;2.90;87.40;;;;;;5033647;28;20075;-52
2023/03/15 10:13:17;;;;;;;3.92;1.17;;;2.60;87.70;;;;;;5032775;28;20037;-52
2023/03/15 10:15:51;;;;;;;5.38;1.45;;;2.40;88.30;;;;;;5016673;28;20175;-49
2023/03/15 10:18:36;;;;;;;7.28;1.02;;;2.30;88.70;;;;;;5033777;28;20030;-52
2023/03/15 10:21:24;;;;;;;4.35;1.23;;;2.30;89.50;;;;;;5033515;28;20060;-55
2023/03/15 10:23:54;;;;;;;3.88;0.80;;;2.20;89.90;;;;;;5034153;28;20025;-59
2023/03/15 10:26:32;;;;;;;3.03;0.70;;;2.20;90.50;;;;;;5033767;28;20030;-58
2023/03/15 10:29:09;;;;;;;6.40;1.20;;;2.20;90.70;;;;;;5053285;28;20029;-57
2023/03/15 10:31:39;;;;;;;3.95;0.93;;;2.10;90.60;;;;;;5051831;28;20044;-49
2023/03/15 10:34:11;;;;;;;12.43;2.03;;;1.90;90.80;;;;;;5052123;28;20438;-52
2023/03/15 10:36:48;;;;;;;5.20;1.10;;;1.80;91.00;;;;;;5044883;28;20460;-52
2023/03/15 10:39:14;;;;;;;5.15;1.10;;;1.60;91.00;;;;;;5033703;28;20070;-52
2023/03/15 10:41:48;;;;;;;3.00;0.90;;;1.50;91.30;;;;;;5032205;28;20040;-53
2023/03/15 10:44:23;;;;;;;5.50;0.90;;;1.50;91.70;;;;;;5048967;28;20124;-51
2023/03/15 10:47:06;;;;;;;4.45;0.80;;;1.60;92.00;;;;;;5048922;28;20040;-48
2023/03/15 10:49:35;;;;;;;3.80;0.88;;;1.80;92.10;;;;;;5050333;28;20025;-48
2023/03/15 10:52:02;;;;;;;2.90;0.95;;;1.90;92.10;;;;;;5048595;28;20071;-51
2023/03/15 10:54:31;;;;;;;4.15;1.15;;;2.10;92.30;;;;;;5048783;28;20056;-60
2023/03/15 10:57:22;;;;;;;6.00;0.80;;;2.30;92.30;;;;;;5032422;28;20033;-58
2023/03/15 11:00:16;;;;;;;3.65;0.80;;;2.70;92.40;;;;;;5046460;28;20048;-53
2023/03/15 11:03:14;;;;;;;6.03;0.77;;;3.20;92.30;;;;;;5046887;28;20037;-50
2023/03/15 11:05:47;;;;;;;4.70;0.88;;;3.50;91.70;;;;;;5022896;28;20810;-48
2023/03/15 11:08:32;;;;;;;3.88;0.85;;;3.80;91.00;;;;;;5032147;28;20052;-47
2023/03/15 11:11:00;;;;;;;6.15;1.17;;;3.90;90.40;;;;;;5033054;28;20497;-47
2023/03/15 11:13:41;;;;;;;7.20;1.10;;;4.10;89.80;;;;;;5031702;28;20061;-46
2023/03/15 11:16:16;;;;;;;6.05;1.67;;;4.40;89.70;;;;;;5015302;28;20041;-45
2023/03/15 11:19:08;;;;;;;3.60;0.90;;;4.40;88.60;;;;;;5037226;28;20347;-45
2023/03/15 11:21:35;;;;;;;3.67;0.77;;;4.50;88.10;;;;;;5038734;28;20027;-44
2023/03/15 11:24:05;;;;;;;4.30;0.82;;;4.60;87.70;;;;;;5021946;28;20664;-44
2023/03/15 11:26:38;;;;;;;4.82;1.00;;;4.90;87.80;;;;;;5038576;28;20033;-43
2023/03/15 11:29:30;;;;;;;3.35;0.95;;;5.00;86.60;;;;;;5021718;28;20033;-45
2023/03/15 11:32:01;;;;;;;4.28;1.13;;;5.10;86.30;;;;;;5039415;28;20033;-45
2023/03/15 11:35:03;;;;;;;10.75;1.02;;;5.40;86.40;;;;;;5038535;28;20359;-43
2023/03/15 11:37:50;;;;;;;3.90;0.70;;;5.60;85.50;;;;;;5026289;28;20061;-42
2023/03/15 11:40:31;;;;;;;7.38;1.25;;;5.60;84.90;;;;;;5038382;28;20030;-43
2023/03/15 11:43:17;;;;;;;1.98;0.70;;;5.90;85.20;;;;;;5039366;28;20061;-44
2023/03/15 11:46:27;;;;;;;6.22;0.95;;;6.00;83.80;;;;;;5039274;28;20032;-44
2023/03/15 11:49:13;;;;;;;5.05;1.10;;;6.00;83.00;;;;;;5036137;28;20524;-45
2023/03/15 11:51:40;;;;;;;6.32;1.20;;;6.20;83.70;;;;;;5039009;28;20060;-45
2023/03/15 11:54:13;;;;;;;2.45;0.70;;;6.20;83.00;;;;;;5039014;28;20451;-45
2023/03/15 11:56:54;;;;;;;3.88;0.93;;;6.10;82.70;;;;;;5059310;28;20033;-45
2023/03/15 11:59:39;;;;;;;3.28;0.98;;;6.30;83.90;;;;;;5048675;28;20439;-45
2023/03/15 12:02:19;;;;;;;5.72;1.05;;;6.40;83.30;;;;;;5039215;28;20029;-45
2023/03/15 12:04:45;;;;;;;;;;;6.30;82.50;;;;;;5039734;28;20033;-48
2023/03/15 12:07:18;;;;;;;4.07;0.90;;;6.30;82.00;;;;;;5050357;28;19909;-45
2023/03/15 12:09:54;;;;;;;2.65;0.93;;;6.20;81.50;;;;;;5056997;28;20159;-45
2023/03/15 12:12:26;;;;;;;4.53;1.20;;;6.30;82.00;;;;;;5059341;28;20036;-47
2023/03/15 12:15:36;;;;;;;5.13;1.63;;;6.20;82.70;;;;;;5058845;28;20060;-46
2023/03/15 12:18:06;;;;;;;7.93;1.23;;;6.50;82.60;;;;;;5052400;28;20033;-45
2023/03/15 12:20:51;;;;;;;;;;;6.70;82.10;;;;;;5038709;28;20042;-45
2023/03/15 12:23:38;;;;;;;5.32;1.30;;;6.60;82.10;;;;;;5038926;28;20285;-45
2023/03/15 12:26:09;;;;;;;7.53;2.75;;;6.70;82.80;;;;;;5038487;28;20026;-47
2023/03/15 12:29:03;;;;;;;6.82;1.77;;;6.70;82.10;;;;;;5038696;28;20029;-44
2023/03/15 12:31:56;;;;;;;6.72;1.90;;;6.50;81.20;;;;;;5034795;28;20095;-44
2023/03/15 12:34:44;;;;;;;9.85;1.67;;;6.60;82.20;;;;;;5034206;28;20040;-45
2023/03/15 12:37:36;;;;;;;5.82;1.42;;;6.60;82.20;;;;;;5035183;28;20025;-48
2023/03/15 12:40:17;;;;;;;9.57;2.00;;;6.50;81.80;;;;;;5035354;28;20195;-44
2023/03/15 12:42:43;;;;;;;5.45;1.80;;;6.70;83.30;;;;;;5047258;28;20126;-44
2023/03/15 12:45:36;;;;;;;8.27;2.03;;;6.80;82.70;;;;;;5054501;28;20040;-44
2023/03/15 12:48:07;;;;;;;7.28;1.75;;;6.70;82.40;;;;;;5054354;28;20049;-46
2023/03/15 12:50:54;;;;;;;13.90;2.15;;;6.70;81.90;;;;;;5055261;28;20053;-45
2023/03/15 12:53:44;;;;;;;12.52;1.83;;;6.90;82.20;;;;;;5054000;28;20041;-46
2023/03/15 12:56:39;;;;;;;14.30;2.20;;;7.10;83.30;;;;;;5053728;28;20025;-48
2023/03/15 12:59:19;;;;;;;7.07;1.38;;;7.30;81.20;;;;;;5053986;28;20033;-44
2023/03/15 13:01:47;;;;;;;7.80;2.13;;;7.50;81.20;;;;;;5035050;28;20029;-44
2023/03/15 13:04:14;;;;;;;8.18;1.75;;;7.80;80.80;;;;;;5035384;28;20439;-44
2023/03/15 13:07:32;;;;;;;7.35;1.55;;;7.90;78.60;;;;;;5034166;28;20441;-48
2023/03/15 13:10:19;;;;;;;7.63;1.55;;;8.00;77.90;;;;;;5042720;28;20051;-44
2023/03/15 13:13:19;;;;;;;3.10;1.30;;;8.20;77.90;;;;;;5055078;28;20029;-43
2023/03/15 13:16:14;;;;;;;10.10;2.05;;;8.00;76.70;;;;;;5020972;28;20519;-42
2023/03/15 13:18:58;;;;;;;6.88;1.42;;;7.90;77.20;;;;;;5015305;28;20025;-44
2023/03/15 13:21:45;;;;;;;7.05;2.22;;;7.70;75.20;;;;;;5014080;28;20038;-42
2023/03/15 13:24:24;;;;;;;5.78;1.75;;;7.70;76.10;;;;;;5015432;28;20037;-43
2023/03/15 13:27:11;;;;;;;5.30;1.10;;;7.60;75.80;;;;;;5014181;28;20038;-42